createdAt,value
2018-08-04T00:00:03.929Z,0.00
2018-08-04T00:01:24.964Z,0.00
2018-08-04T00:02:03.998Z,0.00
2018-08-04T00:03:04.013Z,0.00
2018-08-04T00:04:04.039Z,0.00
2018-08-04T00:05:04.078Z,0.00
2018-08-04T00:06:04.096Z,0.00
2018-08-04T00:07:25.153Z,0.00
2018-08-04T00:08:04.197Z,0.00
2018-08-04T00:09:04.194Z,0.00
2018-08-04T00:10:04.238Z,0.00
2018-08-04T00:11:04.259Z,0.00
2018-08-04T00:12:04.294Z,0.00
2018-08-04T00:13:25.371Z,0.00
2018-08-04T00:14:04.352Z,0.00
2018-08-04T00:15:04.388Z,0.00
2018-08-04T00:16:04.401Z,0.00
2018-08-04T00:17:04.438Z,0.00
2018-08-04T00:18:04.471Z,0.00
2018-08-04T00:19:25.509Z,0.00
2018-08-04T00:20:04.520Z,0.00
2018-08-04T00:21:04.576Z,0.00
2018-08-04T00:22:04.599Z,0.00
2018-08-04T00:23:04.677Z,0.00
2018-08-04T00:24:04.649Z,0.00
2018-08-04T00:25:25.698Z,0.00
2018-08-04T00:26:04.728Z,0.00
2018-08-04T00:27:04.750Z,0.00
2018-08-04T00:28:04.805Z,0.00
2018-08-04T00:29:04.847Z,0.00
2018-08-04T00:30:04.842Z,0.00
2018-08-04T00:31:25.895Z,0.00
2018-08-04T00:32:04.911Z,0.00
2018-08-04T00:33:04.927Z,0.00
2018-08-04T00:34:04.959Z,0.00
2018-08-04T00:35:05.010Z,0.00
2018-08-04T00:36:05.137Z,0.00
2018-08-04T00:37:26.071Z,0.00
2018-08-04T00:38:05.085Z,0.00
2018-08-04T00:39:05.122Z,0.00
2018-08-04T00:40:05.154Z,0.00
2018-08-04T00:41:05.254Z,0.00
2018-08-04T00:42:05.224Z,0.00
2018-08-04T00:43:26.252Z,0.00
2018-08-04T00:44:05.265Z,0.00
2018-08-04T00:45:05.297Z,0.00
2018-08-04T00:46:05.365Z,0.00
2018-08-04T00:47:05.374Z,0.00
2018-08-04T00:48:05.409Z,0.00
2018-08-04T00:49:27.256Z,0.00
2018-08-04T00:50:05.456Z,0.00
2018-08-04T00:51:05.480Z,0.00
2018-08-04T00:52:05.513Z,0.00
2018-08-04T00:53:05.538Z,0.00
2018-08-04T00:54:05.609Z,0.00
2018-08-04T00:55:26.638Z,0.00
2018-08-04T00:56:05.634Z,0.00
2018-08-04T00:57:05.666Z,0.00
2018-08-04T00:58:05.693Z,0.00
2018-08-04T00:59:05.727Z,0.00
2018-08-04T01:00:05.761Z,0.00
2018-08-04T01:01:26.808Z,0.00
2018-08-04T01:02:05.832Z,0.00
2018-08-04T01:03:05.845Z,0.00
2018-08-04T01:04:05.874Z,0.00
2018-08-04T01:05:05.912Z,0.00
2018-08-04T01:06:05.951Z,0.00
2018-08-04T01:07:27.005Z,0.00
2018-08-04T01:08:06.009Z,0.00
2018-08-04T01:09:06.034Z,0.00
2018-08-04T01:10:06.092Z,0.00
2018-08-04T01:11:06.096Z,0.00
2018-08-04T01:12:06.127Z,0.00
2018-08-04T01:13:27.173Z,0.00
2018-08-04T01:14:06.186Z,0.00
2018-08-04T01:15:06.213Z,0.00
2018-08-04T01:16:06.274Z,0.00
2018-08-04T01:17:06.285Z,0.00
2018-08-04T01:18:06.316Z,0.00
2018-08-04T01:19:27.367Z,0.00
2018-08-04T01:20:06.377Z,0.00
2018-08-04T01:21:06.450Z,0.00
2018-08-04T01:22:06.433Z,0.00
2018-08-04T01:23:06.472Z,0.00
2018-08-04T01:24:06.502Z,0.00
2018-08-04T01:25:27.546Z,0.00
2018-08-04T01:26:06.558Z,0.00
2018-08-04T01:27:06.593Z,0.00
2018-08-04T01:28:06.931Z,0.00
2018-08-04T01:29:06.656Z,0.00
2018-08-04T01:30:06.710Z,0.00
2018-08-04T01:31:27.723Z,0.00
2018-08-04T01:32:06.745Z,0.00
2018-08-04T01:33:06.782Z,0.00
2018-08-04T01:34:06.853Z,0.00
2018-08-04T01:35:06.833Z,0.00
2018-08-04T01:36:06.862Z,0.00
2018-08-04T01:37:27.936Z,0.00
2018-08-04T01:38:06.946Z,0.00
2018-08-04T01:39:07.748Z,0.00
2018-08-04T01:40:06.988Z,0.00
2018-08-04T01:41:07.076Z,0.00
2018-08-04T01:42:07.051Z,0.00
2018-08-04T01:43:28.110Z,0.00
2018-08-04T01:44:07.125Z,0.00
2018-08-04T01:45:07.131Z,0.00
2018-08-04T01:46:07.200Z,0.00
2018-08-04T01:47:07.221Z,0.00
2018-08-04T01:48:07.239Z,0.00
2018-08-04T01:49:28.325Z,0.00
2018-08-04T01:50:07.300Z,0.00
2018-08-04T01:51:07.319Z,0.00
2018-08-04T01:52:07.390Z,0.00
2018-08-04T01:53:07.395Z,0.00
2018-08-04T01:54:07.416Z,0.00
2018-08-04T01:55:28.482Z,0.00
2018-08-04T01:56:07.491Z,0.00
2018-08-04T01:57:07.525Z,0.00
2018-08-04T01:58:07.539Z,0.00
2018-08-04T01:59:07.627Z,0.00
2018-08-04T02:00:07.600Z,0.00
2018-08-04T02:01:28.650Z,0.00
2018-08-04T02:02:07.668Z,0.00
2018-08-04T02:03:07.683Z,0.00
2018-08-04T02:04:07.728Z,0.00
2018-08-04T02:05:07.751Z,0.00
2018-08-04T02:06:07.778Z,0.00
2018-08-04T02:07:28.880Z,0.00
2018-08-04T02:08:07.846Z,0.00
2018-08-04T02:09:07.894Z,0.00
2018-08-04T02:10:07.925Z,0.00
2018-08-04T02:11:07.939Z,0.00
2018-08-04T02:12:07.973Z,0.00
2018-08-04T02:13:29.041Z,0.00
2018-08-04T02:14:08.039Z,0.00
2018-08-04T02:15:08.080Z,0.00
2018-08-04T02:16:08.089Z,0.00
2018-08-04T02:17:08.120Z,0.00
2018-08-04T02:18:08.165Z,0.00
2018-08-04T02:19:29.201Z,0.00
2018-08-04T02:20:08.209Z,0.00
2018-08-04T02:21:08.248Z,0.00
2018-08-04T02:22:08.271Z,0.00
2018-08-04T02:23:08.301Z,0.00
2018-08-04T02:24:08.332Z,0.00
2018-08-04T02:25:29.389Z,0.00
2018-08-04T02:26:08.386Z,0.00
2018-08-04T02:27:08.426Z,0.00
2018-08-04T02:28:08.580Z,0.00
2018-08-04T02:29:08.478Z,0.00
2018-08-04T02:30:08.528Z,0.00
2018-08-04T02:31:29.562Z,0.00
2018-08-04T02:32:08.606Z,0.00
2018-08-04T02:33:08.611Z,0.00
2018-08-04T02:34:08.647Z,0.00
2018-08-04T02:35:08.688Z,0.00
2018-08-04T02:36:08.696Z,0.00
2018-08-04T02:37:29.759Z,0.00
2018-08-04T02:38:08.795Z,0.00
2018-08-04T02:39:08.865Z,0.00
2018-08-04T02:40:08.827Z,0.00
2018-08-04T02:41:08.874Z,0.00
2018-08-04T02:42:08.881Z,0.00
2018-08-04T02:43:29.934Z,0.00
2018-08-04T02:44:08.939Z,0.00
2018-08-04T02:45:09.025Z,0.00
2018-08-04T02:46:09.009Z,0.00
2018-08-04T02:47:09.052Z,0.00
2018-08-04T02:48:09.102Z,0.00
2018-08-04T02:49:30.121Z,0.00
2018-08-04T02:50:09.179Z,0.00
2018-08-04T02:51:09.161Z,0.00
2018-08-04T02:52:09.207Z,0.00
2018-08-04T02:53:09.239Z,0.00
2018-08-04T02:54:09.258Z,0.00
2018-08-04T02:55:30.302Z,0.00
2018-08-04T02:56:09.344Z,0.00
2018-08-04T02:57:09.357Z,0.00
2018-08-04T02:58:09.377Z,0.00
2018-08-04T02:59:09.417Z,0.00
2018-08-04T03:00:09.430Z,0.00
2018-08-04T03:01:30.485Z,0.00
2018-08-04T03:02:09.499Z,0.00
2018-08-04T03:03:09.522Z,0.00
2018-08-04T03:04:09.546Z,0.00
2018-08-04T03:05:09.588Z,0.00
2018-08-04T03:06:09.639Z,0.00
2018-08-04T03:07:30.678Z,0.00
2018-08-04T03:08:09.675Z,0.00
2018-08-04T03:09:09.708Z,4.00
2018-08-04T03:10:09.734Z,0.00
2018-08-04T03:11:09.787Z,0.00
2018-08-04T03:12:09.799Z,0.00
2018-08-04T03:13:30.847Z,0.00
2018-08-04T03:14:09.863Z,4.00
2018-08-04T03:15:09.899Z,4.00
2018-08-04T03:16:09.929Z,0.00
2018-08-04T03:17:09.947Z,0.00
2018-08-04T03:18:09.985Z,4.00
2018-08-04T03:19:31.037Z,4.00
2018-08-04T03:20:10.037Z,4.00
2018-08-04T03:21:10.080Z,4.00
2018-08-04T03:22:10.115Z,4.00
2018-08-04T03:23:10.126Z,8.00
2018-08-04T03:24:10.164Z,4.00
2018-08-04T03:25:31.216Z,8.00
2018-08-04T03:26:10.222Z,4.00
2018-08-04T03:27:10.265Z,8.00
2018-08-04T03:28:10.300Z,8.00
2018-08-04T03:29:10.324Z,8.00
2018-08-04T03:30:10.342Z,8.00
2018-08-04T03:31:31.406Z,8.00
2018-08-04T03:32:10.402Z,12.00
2018-08-04T03:33:10.433Z,12.00
2018-08-04T03:34:10.466Z,12.00
2018-08-04T03:35:10.506Z,12.00
2018-08-04T03:36:10.533Z,12.00
2018-08-04T03:37:31.581Z,12.00
2018-08-04T03:38:10.595Z,16.00
2018-08-04T03:39:10.639Z,16.00
2018-08-04T03:40:10.642Z,16.00
2018-08-04T03:41:10.684Z,20.00
2018-08-04T03:42:10.709Z,20.00
2018-08-04T03:43:31.790Z,20.00
2018-08-04T03:44:10.765Z,24.00
2018-08-04T03:45:10.801Z,24.00
2018-08-04T03:46:10.827Z,24.00
2018-08-04T03:47:10.870Z,28.00
2018-08-04T03:48:10.990Z,28.00
2018-08-04T03:49:31.946Z,28.00
2018-08-04T03:50:10.970Z,28.00
2018-08-04T03:51:10.997Z,36.00
2018-08-04T03:52:11.013Z,36.00
2018-08-04T03:53:11.044Z,36.00
2018-08-04T03:54:11.083Z,36.00
2018-08-04T03:55:32.123Z,36.00
2018-08-04T03:56:11.148Z,40.00
2018-08-04T03:57:11.209Z,44.00
2018-08-04T03:58:11.193Z,44.00
2018-08-04T03:59:11.279Z,48.00
2018-08-04T04:00:11.280Z,48.00
2018-08-04T04:01:32.330Z,48.00
2018-08-04T04:02:11.329Z,52.00
2018-08-04T04:03:11.356Z,56.00
2018-08-04T04:04:11.372Z,56.00
2018-08-04T04:05:11.412Z,60.00
2018-08-04T04:06:11.458Z,60.00
2018-08-04T04:07:32.488Z,64.00
2018-08-04T04:08:11.503Z,64.00
2018-08-04T04:09:11.537Z,68.00
2018-08-04T04:10:11.585Z,72.00
2018-08-04T04:11:11.605Z,76.00
2018-08-04T04:12:11.653Z,80.00
2018-08-04T04:13:32.682Z,84.00
2018-08-04T04:14:11.687Z,84.00
2018-08-04T04:15:11.723Z,96.00
2018-08-04T04:16:11.748Z,100.00
2018-08-04T04:17:11.786Z,104.00
2018-08-04T04:18:11.810Z,108.00
2018-08-04T04:19:32.916Z,112.00
2018-08-04T04:20:11.853Z,116.00
2018-08-04T04:21:11.900Z,120.00
2018-08-04T04:22:11.937Z,128.00
2018-08-04T04:23:11.953Z,136.00
2018-08-04T04:24:12.057Z,140.00
2018-08-04T04:25:33.093Z,144.00
2018-08-04T04:26:12.040Z,148.00
2018-08-04T04:27:12.091Z,156.00
2018-08-04T04:28:12.165Z,164.00
2018-08-04T04:29:12.140Z,164.00
2018-08-04T04:30:12.171Z,172.00
2018-08-04T04:31:33.218Z,180.00
2018-08-04T04:32:12.241Z,188.00
2018-08-04T04:33:12.266Z,192.00
2018-08-04T04:34:12.313Z,204.00
2018-08-04T04:35:12.353Z,208.00
2018-08-04T04:36:12.360Z,220.00
2018-08-04T04:37:33.420Z,228.00
2018-08-04T04:38:12.441Z,236.00
2018-08-04T04:39:12.471Z,244.00
2018-08-04T04:40:12.473Z,256.00
2018-08-04T04:41:12.500Z,260.00
2018-08-04T04:42:12.530Z,268.00
2018-08-04T04:43:33.594Z,280.00
2018-08-04T04:44:12.612Z,288.00
2018-08-04T04:45:12.636Z,296.00
2018-08-04T04:46:12.771Z,304.00
2018-08-04T04:47:12.706Z,312.00
2018-08-04T04:48:12.726Z,324.00
2018-08-04T04:49:33.778Z,332.00
2018-08-04T04:50:12.855Z,344.00
2018-08-04T04:51:12.799Z,344.00
2018-08-04T04:52:12.853Z,352.00
2018-08-04T04:53:12.873Z,360.00
2018-08-04T04:54:12.901Z,360.00
2018-08-04T04:55:33.964Z,360.00
2018-08-04T04:56:12.984Z,360.00
2018-08-04T04:57:13.017Z,356.00
2018-08-04T04:58:13.028Z,360.00
2018-08-04T04:59:13.066Z,360.00
2018-08-04T05:00:13.075Z,356.00
2018-08-04T05:01:34.140Z,352.00
2018-08-04T05:02:13.150Z,364.00
2018-08-04T05:03:13.173Z,352.00
2018-08-04T05:04:13.198Z,360.00
2018-08-04T05:05:13.241Z,364.00
2018-08-04T05:06:13.404Z,360.00
2018-08-04T05:07:34.318Z,360.00
2018-08-04T05:08:13.360Z,360.00
2018-08-04T05:09:13.370Z,372.00
2018-08-04T05:10:13.387Z,380.00
2018-08-04T05:11:13.421Z,372.00
2018-08-04T05:12:13.459Z,372.00
2018-08-04T05:13:34.498Z,372.00
2018-08-04T05:14:13.535Z,396.00
2018-08-04T05:15:13.549Z,392.00
2018-08-04T05:16:13.621Z,372.00
2018-08-04T05:17:13.608Z,364.00
2018-08-04T05:18:13.639Z,368.00
2018-08-04T05:19:34.704Z,372.00
2018-08-04T05:20:13.692Z,380.00
2018-08-04T05:21:13.743Z,364.00
2018-08-04T05:22:13.758Z,364.00
2018-08-04T05:23:13.780Z,368.00
2018-08-04T05:24:13.820Z,364.00
2018-08-04T05:25:34.959Z,372.00
2018-08-04T05:26:13.907Z,368.00
2018-08-04T05:27:13.929Z,372.00
2018-08-04T05:28:13.974Z,368.00
2018-08-04T05:29:13.961Z,368.00
2018-08-04T05:30:14.005Z,372.00
2018-08-04T05:31:35.041Z,376.00
2018-08-04T05:32:14.065Z,368.00
2018-08-04T05:33:14.091Z,360.00
2018-08-04T05:34:14.117Z,356.00
2018-08-04T05:35:14.167Z,356.00
2018-08-04T05:36:14.184Z,356.00
2018-08-04T05:37:35.241Z,356.00
2018-08-04T05:38:14.238Z,360.00
2018-08-04T05:39:14.269Z,364.00
2018-08-04T05:40:14.314Z,364.00
2018-08-04T05:41:14.328Z,380.00
2018-08-04T05:42:14.399Z,384.00
2018-08-04T05:43:35.475Z,380.00
2018-08-04T05:44:14.444Z,388.00
2018-08-04T05:45:14.694Z,396.00
2018-08-04T05:46:14.494Z,396.00
2018-08-04T05:47:14.514Z,416.00
2018-08-04T05:48:14.535Z,412.00
2018-08-04T05:49:35.599Z,424.00
2018-08-04T05:50:14.622Z,420.00
2018-08-04T05:51:14.630Z,440.00
2018-08-04T05:52:14.664Z,444.00
2018-08-04T05:53:14.692Z,448.00
2018-08-04T05:54:14.741Z,432.00
2018-08-04T05:55:35.788Z,440.00
2018-08-04T05:56:14.781Z,444.00
2018-08-04T05:57:14.918Z,420.00
2018-08-04T05:58:14.846Z,424.00
2018-08-04T05:59:14.897Z,436.00
2018-08-04T06:00:14.939Z,460.00
2018-08-04T06:01:35.963Z,464.00
2018-08-04T06:02:14.988Z,448.00
2018-08-04T06:03:15.058Z,452.00
2018-08-04T06:04:15.028Z,460.00
2018-08-04T06:05:15.067Z,432.00
2018-08-04T06:06:15.176Z,408.00
2018-08-04T06:07:36.144Z,400.00
2018-08-04T06:08:15.158Z,420.00
2018-08-04T06:09:15.907Z,388.00
2018-08-04T06:10:15.224Z,392.00
2018-08-04T06:11:15.246Z,396.00
2018-08-04T06:12:15.291Z,396.00
2018-08-04T06:13:36.321Z,396.00
2018-08-04T06:14:15.335Z,400.00
2018-08-04T06:15:16.383Z,408.00
2018-08-04T06:16:15.396Z,404.00
2018-08-04T06:17:15.506Z,404.00
2018-08-04T06:18:15.465Z,412.00
2018-08-04T06:19:36.518Z,404.00
2018-08-04T06:20:15.517Z,408.00
2018-08-04T06:21:15.551Z,420.00
2018-08-04T06:22:15.586Z,416.00
2018-08-04T06:23:15.614Z,412.00
2018-08-04T06:24:15.666Z,420.00
2018-08-04T06:25:36.707Z,424.00
2018-08-04T06:26:15.706Z,436.00
2018-08-04T06:27:15.756Z,440.00
2018-08-04T06:28:15.764Z,444.00
2018-08-04T06:29:15.791Z,444.00
2018-08-04T06:30:15.838Z,448.00
2018-08-04T06:31:36.902Z,448.00
2018-08-04T06:32:15.886Z,452.00
2018-08-04T06:33:15.920Z,448.00
2018-08-04T06:34:15.947Z,460.00
2018-08-04T06:35:15.986Z,448.00
2018-08-04T06:36:16.011Z,452.00
2018-08-04T06:37:37.078Z,456.00
2018-08-04T06:38:16.074Z,460.00
2018-08-04T06:39:16.134Z,472.00
2018-08-04T06:40:16.134Z,472.00
2018-08-04T06:41:16.180Z,476.00
2018-08-04T06:42:16.189Z,476.00
2018-08-04T06:43:37.241Z,484.00
2018-08-04T06:44:16.246Z,492.00
2018-08-04T06:45:16.355Z,492.00
2018-08-04T06:46:16.321Z,488.00
2018-08-04T06:47:16.365Z,492.00
2018-08-04T06:48:16.372Z,492.00
2018-08-04T06:49:37.439Z,500.00
2018-08-04T06:50:16.501Z,504.00
2018-08-04T06:51:16.485Z,504.00
2018-08-04T06:52:16.507Z,516.00
2018-08-04T06:53:16.600Z,524.00
2018-08-04T06:54:16.556Z,524.00
2018-08-04T06:55:37.616Z,524.00
2018-08-04T06:56:16.628Z,532.00
2018-08-04T06:57:16.672Z,532.00
2018-08-04T06:58:16.767Z,536.00
2018-08-04T06:59:16.729Z,548.00
2018-08-04T07:00:16.758Z,552.00
2018-08-04T07:01:37.791Z,568.00
2018-08-04T07:02:16.807Z,576.00
2018-08-04T07:03:16.852Z,584.00
2018-08-04T07:04:16.892Z,580.00
2018-08-04T07:05:16.903Z,592.00
2018-08-04T07:06:16.946Z,596.00
2018-08-04T07:07:38.002Z,596.00
2018-08-04T07:08:17.009Z,596.00
2018-08-04T07:09:17.020Z,600.00
2018-08-04T07:10:17.048Z,608.00
2018-08-04T07:11:17.102Z,612.00
2018-08-04T07:12:17.140Z,620.00
2018-08-04T07:13:38.235Z,632.00
2018-08-04T07:14:17.173Z,640.00
2018-08-04T07:15:17.215Z,648.00
2018-08-04T07:16:17.248Z,652.00
2018-08-04T07:17:17.265Z,652.00
2018-08-04T07:18:17.306Z,656.00
2018-08-04T07:19:38.347Z,656.00
2018-08-04T07:20:17.369Z,652.00
2018-08-04T07:21:17.407Z,660.00
2018-08-04T07:22:17.449Z,668.00
2018-08-04T07:23:17.545Z,672.00
2018-08-04T07:24:17.552Z,676.00
2018-08-04T07:25:38.557Z,680.00
2018-08-04T07:26:17.591Z,688.00
2018-08-04T07:27:17.574Z,696.00
2018-08-04T07:28:17.617Z,692.00
2018-08-04T07:29:17.666Z,700.00
2018-08-04T07:30:17.668Z,704.00
2018-08-04T07:31:38.722Z,716.00
2018-08-04T07:32:17.725Z,716.00
2018-08-04T07:33:17.749Z,732.00
2018-08-04T07:34:17.820Z,740.00
2018-08-04T07:35:17.814Z,760.00
2018-08-04T07:36:17.849Z,752.00
2018-08-04T07:37:38.907Z,756.00
2018-08-04T07:38:17.953Z,760.00
2018-08-04T07:39:17.936Z,764.00
2018-08-04T07:40:17.997Z,844.00
2018-08-04T07:41:18.019Z,784.00
2018-08-04T07:42:18.055Z,792.00
2018-08-04T07:43:39.175Z,804.00
2018-08-04T07:44:18.106Z,816.00
2018-08-04T07:45:18.132Z,828.00
2018-08-04T07:46:18.149Z,844.00
2018-08-04T07:47:18.195Z,844.00
2018-08-04T07:48:18.216Z,860.00
2018-08-04T07:49:39.262Z,864.00
2018-08-04T07:50:18.298Z,868.00
2018-08-04T07:51:18.327Z,880.00
2018-08-04T07:52:18.363Z,888.00
2018-08-04T07:53:18.364Z,884.00
2018-08-04T07:54:18.413Z,884.00
2018-08-04T07:55:39.477Z,888.00
2018-08-04T07:56:18.515Z,888.00
2018-08-04T07:57:18.497Z,888.00
2018-08-04T07:58:18.536Z,904.00
2018-08-04T07:59:18.573Z,904.00
2018-08-04T08:00:18.591Z,808.00
2018-08-04T08:01:39.649Z,908.00
2018-08-04T08:02:18.645Z,920.00
2018-08-04T08:03:18.690Z,928.00
2018-08-04T08:04:18.750Z,940.00
2018-08-04T08:05:18.753Z,948.00
2018-08-04T08:06:18.830Z,956.00
2018-08-04T08:07:39.843Z,964.00
2018-08-04T08:08:18.844Z,976.00
2018-08-04T08:09:18.895Z,988.00
2018-08-04T08:10:18.979Z,988.00
2018-08-04T08:11:19.027Z,996.00
2018-08-04T08:12:18.999Z,996.00
2018-08-04T08:13:40.012Z,1012.00
2018-08-04T08:14:19.029Z,1044.00
2018-08-04T08:15:19.100Z,1068.00
2018-08-04T08:16:19.103Z,1056.00
2018-08-04T08:17:19.136Z,1068.00
2018-08-04T08:18:19.163Z,1084.00
2018-08-04T08:19:40.227Z,1092.00
2018-08-04T08:20:19.219Z,1104.00
2018-08-04T08:21:19.247Z,1112.00
2018-08-04T08:22:19.290Z,1124.00
2018-08-04T08:23:19.303Z,1128.00
2018-08-04T08:24:19.423Z,1136.00
2018-08-04T08:25:40.399Z,1132.00
2018-08-04T08:26:19.405Z,1136.00
2018-08-04T08:27:19.444Z,1136.00
2018-08-04T08:28:19.467Z,1144.00
2018-08-04T08:29:19.502Z,1140.00
2018-08-04T08:30:19.521Z,1136.00
2018-08-04T08:31:40.594Z,1144.00
2018-08-04T08:32:19.580Z,1148.00
2018-08-04T08:33:19.644Z,1152.00
2018-08-04T08:34:19.662Z,1148.00
2018-08-04T08:35:19.689Z,1152.00
2018-08-04T08:36:19.731Z,1164.00
2018-08-04T08:37:40.775Z,1192.00
2018-08-04T08:38:19.798Z,1188.00
2018-08-04T08:39:19.815Z,1204.00
2018-08-04T08:40:19.864Z,1216.00
2018-08-04T08:41:19.867Z,1220.00
2018-08-04T08:42:19.908Z,1224.00
2018-08-04T08:43:40.960Z,1228.00
2018-08-04T08:44:19.962Z,1236.00
2018-08-04T08:45:19.996Z,1224.00
2018-08-04T08:46:20.025Z,1248.00
2018-08-04T08:47:20.109Z,1272.00
2018-08-04T08:48:20.086Z,1264.00
2018-08-04T08:49:41.131Z,1272.00
2018-08-04T08:50:20.148Z,1272.00
2018-08-04T08:51:20.184Z,1288.00
2018-08-04T08:52:20.514Z,1300.00
2018-08-04T08:53:20.710Z,1304.00
2018-08-04T08:54:20.283Z,1312.00
2018-08-04T08:55:41.347Z,1316.00
2018-08-04T08:56:20.437Z,1324.00
2018-08-04T08:57:20.403Z,1320.00
2018-08-04T08:58:21.593Z,1320.00
2018-08-04T09:00:46.156Z,1328.00
2018-08-04T09:02:06.986Z,1324.00
2018-08-04T09:02:45.949Z,1336.00
2018-08-04T09:03:45.967Z,1324.00
2018-08-04T09:04:45.991Z,1352.00
2018-08-04T09:05:46.028Z,1348.00
2018-08-04T09:06:46.095Z,1364.00
2018-08-04T09:08:07.122Z,1368.00
2018-08-04T09:08:46.147Z,1412.00
2018-08-04T09:09:46.147Z,1400.00
2018-08-04T09:10:46.181Z,1448.00
2018-08-04T09:11:46.329Z,1532.00
2018-08-04T09:12:46.289Z,1544.00
2018-08-04T09:14:07.320Z,1644.00
2018-08-04T09:14:46.401Z,1608.00
2018-08-04T09:15:46.399Z,1680.00
2018-08-04T09:16:46.530Z,1716.00
2018-08-04T09:17:46.636Z,1716.00
2018-08-04T09:18:46.565Z,1724.00
2018-08-04T09:20:07.770Z,1736.00
2018-08-04T09:20:46.530Z,1756.00
2018-08-04T09:21:46.550Z,1768.00
2018-08-04T09:22:46.560Z,1812.00
2018-08-04T09:23:46.592Z,1848.00
2018-08-04T09:24:46.625Z,1964.00
2018-08-04T09:26:07.832Z,1960.00
2018-08-04T09:26:46.672Z,1956.00
2018-08-04T09:27:47.107Z,1964.00
2018-08-04T09:28:46.743Z,2056.00
2018-08-04T09:29:46.820Z,2168.00
2018-08-04T09:30:46.864Z,2192.00
2018-08-04T09:32:07.859Z,2232.00
2018-08-04T09:32:46.870Z,2268.00
2018-08-04T09:33:46.905Z,2240.00
2018-08-04T09:34:46.937Z,2432.00
2018-08-04T09:35:46.976Z,2580.00
2018-08-04T09:36:47.031Z,2604.00
2018-08-04T09:38:08.033Z,2436.00
2018-08-04T09:38:47.066Z,2608.00
2018-08-04T09:39:47.089Z,2668.00
2018-08-04T09:40:47.201Z,2876.00
2018-08-04T09:41:47.183Z,2880.00
2018-08-04T09:42:47.201Z,2952.00
2018-08-04T09:44:08.248Z,2900.00
2018-08-04T09:44:47.252Z,2920.00
2018-08-04T09:45:47.293Z,2920.00
2018-08-04T09:46:47.310Z,2932.00
2018-08-04T09:47:47.339Z,2952.00
2018-08-04T09:48:47.380Z,2988.00
2018-08-04T09:50:08.448Z,3020.00
2018-08-04T09:50:47.533Z,3048.00
2018-08-04T09:51:47.544Z,3224.00
2018-08-04T09:52:47.491Z,3132.00
2018-08-04T09:53:47.539Z,3256.00
2018-08-04T09:54:47.563Z,3296.00
2018-08-04T09:56:08.622Z,3172.00
2018-08-04T09:56:47.626Z,3496.00
2018-08-04T09:57:47.666Z,3660.00
2018-08-04T09:58:47.701Z,3716.00
2018-08-04T09:59:47.727Z,3644.00
2018-08-04T10:00:47.766Z,3920.00
2018-08-04T10:02:08.805Z,3896.00
2018-08-04T10:02:47.817Z,3844.00
2018-08-04T10:03:47.856Z,4148.00
2018-08-04T10:04:47.872Z,4628.00
2018-08-04T10:05:47.913Z,4336.00
2018-08-04T10:06:47.961Z,6584.00
2018-08-04T10:08:09.000Z,7128.00
2018-08-04T10:08:48.010Z,7552.00
2018-08-04T10:09:48.040Z,8188.00
2018-08-04T10:10:48.084Z,8620.00
2018-08-04T10:11:48.102Z,8624.00
2018-08-04T10:12:48.133Z,9412.00
2018-08-04T10:14:09.203Z,7704.00
2018-08-04T10:14:48.205Z,8260.00
2018-08-04T10:15:48.220Z,10000.00
2018-08-04T10:16:48.266Z,5924.00
2018-08-04T10:17:48.286Z,6540.00
2018-08-04T10:18:48.325Z,4092.00
2018-08-04T10:20:09.430Z,4272.00
2018-08-04T10:20:48.390Z,6492.00
2018-08-04T10:21:48.431Z,9656.00
2018-08-04T10:22:48.445Z,5572.00
2018-08-04T10:23:48.491Z,9652.00
2018-08-04T10:24:48.513Z,10024.00
2018-08-04T10:26:09.607Z,10688.00
2018-08-04T10:26:48.585Z,4660.00
2018-08-04T10:27:49.471Z,4020.00
2018-08-04T10:28:48.651Z,9072.00
2018-08-04T10:29:48.678Z,4476.00
2018-08-04T10:30:48.748Z,4040.00
2018-08-04T10:32:09.947Z,5128.00
2018-08-04T10:32:48.833Z,8388.00
2018-08-04T10:33:48.809Z,7764.00
2018-08-04T10:34:48.839Z,4548.00
2018-08-04T10:35:48.907Z,3968.00
2018-08-04T10:36:48.916Z,5468.00
2018-08-04T10:38:09.959Z,9820.00
2018-08-04T10:38:48.974Z,10248.00
2018-08-04T10:39:49.006Z,3584.00
2018-08-04T10:40:49.037Z,12268.00
2018-08-04T10:41:49.069Z,9448.00
2018-08-04T10:42:49.101Z,8972.00
2018-08-04T10:44:10.174Z,8808.00
2018-08-04T10:44:49.214Z,5692.00
2018-08-04T10:45:49.210Z,10224.00
2018-08-04T10:46:49.258Z,11172.00
2018-08-04T10:47:49.331Z,10840.00
2018-08-04T10:48:49.310Z,10676.00
2018-08-04T10:50:10.340Z,11144.00
2018-08-04T10:50:49.398Z,11008.00
2018-08-04T10:51:49.407Z,11344.00
2018-08-04T10:52:49.445Z,11260.00
2018-08-04T10:53:49.452Z,10700.00
2018-08-04T10:54:49.553Z,10652.00
2018-08-04T10:56:10.606Z,10932.00
2018-08-04T10:56:49.616Z,8580.00
2018-08-04T10:57:49.593Z,5448.00
2018-08-04T10:58:49.640Z,10920.00
2018-08-04T10:59:49.660Z,6900.00
2018-08-04T11:00:49.698Z,7192.00
2018-08-04T11:02:10.739Z,6120.00
2018-08-04T11:02:49.760Z,8248.00
2018-08-04T11:03:49.850Z,7148.00
2018-08-04T11:04:49.833Z,7208.00
2018-08-04T11:05:49.867Z,12784.00
2018-08-04T11:06:49.897Z,6928.00
2018-08-04T11:08:11.014Z,6112.00
2018-08-04T11:08:49.963Z,4516.00
2018-08-04T11:09:49.999Z,6564.00
2018-08-04T11:10:50.036Z,5160.00
2018-08-04T11:11:50.074Z,5188.00
2018-08-04T11:12:50.098Z,5708.00
2018-08-04T11:14:11.185Z,6164.00
2018-08-04T11:14:50.191Z,8632.00
2018-08-04T11:15:50.203Z,4664.00
2018-08-04T11:16:50.236Z,2424.00
2018-08-04T11:17:50.276Z,3908.00
2018-08-04T11:18:50.313Z,3048.00
2018-08-04T11:20:11.369Z,4100.00
2018-08-04T11:20:50.361Z,2312.00
2018-08-04T11:21:50.440Z,2468.00
2018-08-04T11:22:50.481Z,3508.00
2018-08-04T11:23:50.526Z,5704.00
2018-08-04T11:24:50.522Z,4100.00
2018-08-04T11:26:11.574Z,3040.00
2018-08-04T11:26:50.601Z,5068.00
2018-08-04T11:27:50.617Z,3216.00
2018-08-04T11:28:50.691Z,6032.00
2018-08-04T11:29:50.703Z,8460.00
2018-08-04T11:30:50.714Z,6124.00
2018-08-04T11:32:11.762Z,2208.00
2018-08-04T11:32:50.849Z,5008.00
2018-08-04T11:33:50.820Z,3028.00
2018-08-04T11:34:50.869Z,1644.00
2018-08-04T11:35:50.907Z,1280.00
2018-08-04T11:36:50.929Z,1024.00
2018-08-04T11:38:12.000Z,964.00
2018-08-04T11:38:51.007Z,944.00
2018-08-04T11:39:51.035Z,936.00
2018-08-04T11:40:51.110Z,872.00
2018-08-04T11:41:51.094Z,772.00
2018-08-04T11:42:51.128Z,772.00
2018-08-04T11:44:12.171Z,784.00
2018-08-04T11:44:51.183Z,808.00
2018-08-04T11:45:51.227Z,1520.00
2018-08-04T11:46:51.256Z,1408.00
2018-08-04T11:47:51.271Z,1128.00
2018-08-04T11:48:51.324Z,1104.00
2018-08-04T11:50:12.367Z,1024.00
2018-08-04T11:50:51.367Z,980.00
2018-08-04T11:51:51.409Z,1332.00
2018-08-04T11:52:51.578Z,1684.00
2018-08-04T11:55:15.953Z,1844.00
2018-08-04T11:56:36.997Z,1800.00
2018-08-04T11:57:16.032Z,1876.00
2018-08-04T11:58:16.091Z,1948.00
2018-08-04T11:59:16.068Z,1732.00
2018-08-04T12:00:16.119Z,1644.00
2018-08-04T12:01:16.157Z,1620.00
2018-08-04T12:02:37.233Z,1472.00
2018-08-04T12:03:16.209Z,1516.00
2018-08-04T12:04:16.228Z,1652.00
2018-08-04T12:05:16.272Z,1492.00
2018-08-04T12:06:16.302Z,1420.00
2018-08-04T12:07:16.322Z,1368.00
2018-08-04T12:08:37.392Z,1144.00
2018-08-04T12:09:16.397Z,1212.00
2018-08-04T12:10:16.448Z,1148.00
2018-08-04T12:11:16.477Z,1112.00
2018-08-04T12:12:16.502Z,1276.00
2018-08-04T12:13:16.524Z,1292.00
2018-08-04T12:14:37.571Z,1228.00
2018-08-04T12:15:16.613Z,1020.00
2018-08-04T12:16:16.665Z,752.00
2018-08-04T12:17:16.724Z,792.00
2018-08-04T12:18:16.690Z,1128.00
2018-08-04T12:19:16.722Z,1228.00
2018-08-04T12:20:37.795Z,1256.00
2018-08-04T12:21:16.790Z,1356.00
2018-08-04T12:22:16.816Z,1236.00
2018-08-04T12:23:16.849Z,1196.00
2018-08-04T12:24:16.890Z,1388.00
2018-08-04T12:25:16.938Z,1396.00
2018-08-04T12:26:37.958Z,1428.00
2018-08-04T12:27:16.973Z,1504.00
2018-08-04T12:28:17.016Z,1476.00
2018-08-04T12:29:17.059Z,1412.00
2018-08-04T12:30:17.073Z,1304.00
2018-08-04T12:31:17.116Z,1176.00
2018-08-04T12:32:38.179Z,1232.00
2018-08-04T12:33:17.192Z,1244.00
2018-08-04T12:34:17.244Z,1316.00
2018-08-04T12:35:17.252Z,1320.00
2018-08-04T12:36:17.322Z,1124.00
2018-08-04T12:37:17.330Z,1004.00